sensor_id;sensor_type;location;lat;lon;timestamp;P1;durP1;ratioP1;P2;durP2;ratioP2
44989;SDS011;30723;51.206;3.326;2022-09-01T00:01:33;4.18;;;1.10;;
44989;SDS011;30723;51.206;3.326;2022-09-01T00:04:03;2.60;;;1.20;;
44989;SDS011;30723;51.206;3.326;2022-09-01T00:06:31;1.70;;;1.27;;
44989;SDS011;30723;51.206;3.326;2022-09-01T00:09:00;4.13;;;1.55;;
44989;SDS011;30723;51.206;3.326;2022-09-01T00:11:29;5.80;;;1.60;;
44989;SDS011;30723;51.206;3.326;2022-09-01T00:13:58;6.20;;;1.40;;
44989;SDS011;30723;51.206;3.326;2022-09-01T00:16:26;3.00;;;1.20;;
44989;SDS011;30723;51.206;3.326;2022-09-01T00:18:55;1.38;;;1.15;;
44989;SDS011;30723;51.206;3.326;2022-09-01T00:21:26;3.08;;;1.45;;
44989;SDS011;30723;51.206;3.326;2022-09-01T00:24:09;2.47;;;1.20;;
44989;SDS011;30723;51.206;3.326;2022-09-01T00:26:36;4.68;;;1.55;;
44989;SDS011;30723;51.206;3.326;2022-09-01T00:29:03;6.38;;;1.17;;
44989;SDS011;30723;51.206;3.326;2022-09-01T00:31:29;4.85;;;1.40;;
44989;SDS011;30723;51.206;3.326;2022-09-01T00:33:56;10.60;;;1.45;;
44989;SDS011;30723;51.206;3.326;2022-09-01T00:36:23;3.00;;;1.20;;
44989;SDS011;30723;51.206;3.326;2022-09-01T00:38:50;4.20;;;1.30;;
44989;SDS011;30723;51.206;3.326;2022-09-01T00:41:18;1.88;;;1.38;;
44989;SDS011;30723;51.206;3.326;2022-09-01T00:46:36;4.35;;;1.30;;
44989;SDS011;30723;51.206;3.326;2022-09-01T00:49:07;2.42;;;1.50;;
44989;SDS011;30723;51.206;3.326;2022-09-01T00:51:38;2.78;;;1.30;;
44989;SDS011;30723;51.206;3.326;2022-09-01T00:54:07;1.73;;;1.27;;
44989;SDS011;30723;51.206;3.326;2022-09-01T00:59:04;1.38;;;1.20;;
44989;SDS011;30723;51.206;3.326;2022-09-01T01:01:32;4.82;;;1.42;;
44989;SDS011;30723;51.206;3.326;2022-09-01T01:04:01;4.88;;;1.52;;
44989;SDS011;30723;51.206;3.326;2022-09-01T01:06:29;3.35;;;1.15;;
44989;SDS011;30723;51.206;3.326;2022-09-01T01:08:57;3.00;;;1.27;;
44989;SDS011;30723;51.206;3.326;2022-09-01T01:11:28;2.60;;;1.48;;
44989;SDS011;30723;51.206;3.326;2022-09-01T01:14:00;3.53;;;1.48;;
44989;SDS011;30723;51.206;3.326;2022-09-01T01:16:38;1.85;;;1.15;;
44989;SDS011;30723;51.206;3.326;2022-09-01T01:19:20;1.90;;;1.15;;
44989;SDS011;30723;51.206;3.326;2022-09-01T01:30:41;6.50;;;1.20;;
44989;SDS011;30723;51.206;3.326;2022-09-01T01:33:09;7.13;;;1.38;;
44989;SDS011;30723;51.206;3.326;2022-09-01T01:35:36;7.15;;;1.70;;
44989;SDS011;30723;51.206;3.326;2022-09-01T01:38:03;7.28;;;1.77;;
44989;SDS011;30723;51.206;3.326;2022-09-01T01:40:32;1.80;;;1.30;;
44989;SDS011;30723;51.206;3.326;2022-09-01T01:43:06;3.17;;;1.17;;
44989;SDS011;30723;51.206;3.326;2022-09-01T01:45:32;4.40;;;1.40;;
44989;SDS011;30723;51.206;3.326;2022-09-01T01:47:59;5.40;;;1.38;;
44989;SDS011;30723;51.206;3.326;2022-09-01T01:50:35;2.40;;;1.35;;
44989;SDS011;30723;51.206;3.326;2022-09-01T01:53:04;5.78;;;1.30;;
44989;SDS011;30723;51.206;3.326;2022-09-01T01:55:31;5.32;;;1.23;;
44989;SDS011;30723;51.206;3.326;2022-09-01T01:57:57;2.75;;;1.27;;
44989;SDS011;30723;51.206;3.326;2022-09-01T02:00:28;2.05;;;1.65;;
44989;SDS011;30723;51.206;3.326;2022-09-01T02:02:59;2.30;;;1.45;;
44989;SDS011;30723;51.206;3.326;2022-09-01T02:05:30;7.10;;;1.63;;
44989;SDS011;30723;51.206;3.326;2022-09-01T02:08:04;4.18;;;1.77;;
44989;SDS011;30723;51.206;3.326;2022-09-01T02:10:48;2.05;;;1.25;;
44989;SDS011;30723;51.206;3.326;2022-09-01T02:13:18;5.25;;;1.65;;
44989;SDS011;30723;51.206;3.326;2022-09-01T02:15:50;4.90;;;1.60;;
44989;SDS011;30723;51.206;3.326;2022-09-01T02:18:19;6.50;;;1.70;;
44989;SDS011;30723;51.206;3.326;2022-09-01T02:20:52;8.18;;;1.30;;
44989;SDS011;30723;51.206;3.326;2022-09-01T02:23:20;5.68;;;1.35;;
44989;SDS011;30723;51.206;3.326;2022-09-01T02:25:49;2.38;;;1.42;;
44989;SDS011;30723;51.206;3.326;2022-09-01T02:28:19;3.05;;;1.58;;
44989;SDS011;30723;51.206;3.326;2022-09-01T02:30:48;4.43;;;1.30;;
44989;SDS011;30723;51.206;3.326;2022-09-01T02:33:18;4.72;;;1.58;;
44989;SDS011;30723;51.206;3.326;2022-09-01T02:35:46;2.42;;;1.20;;
44989;SDS011;30723;51.206;3.326;2022-09-01T02:38:18;7.93;;;1.60;;
44989;SDS011;30723;51.206;3.326;2022-09-01T02:40:50;6.03;;;1.52;;
44989;SDS011;30723;51.206;3.326;2022-09-01T02:43:18;9.95;;;1.63;;
44989;SDS011;30723;51.206;3.326;2022-09-01T02:45:46;3.60;;;1.77;;
44989;SDS011;30723;51.206;3.326;2022-09-01T02:48:19;7.68;;;1.55;;
44989;SDS011;30723;51.206;3.326;2022-09-01T02:50:50;3.47;;;1.63;;
44989;SDS011;30723;51.206;3.326;2022-09-01T02:53:18;3.83;;;1.20;;
44989;SDS011;30723;51.206;3.326;2022-09-01T02:55:44;5.63;;;1.70;;
44989;SDS011;30723;51.206;3.326;2022-09-01T02:58:10;2.13;;;1.50;;
44989;SDS011;30723;51.206;3.326;2022-09-01T03:00:41;7.10;;;1.73;;
44989;SDS011;30723;51.206;3.326;2022-09-01T03:03:08;2.63;;;1.92;;
44989;SDS011;30723;51.206;3.326;2022-09-01T03:05:37;2.22;;;1.60;;
44989;SDS011;30723;51.206;3.326;2022-09-01T03:08:05;3.28;;;1.40;;
44989;SDS011;30723;51.206;3.326;2022-09-01T03:10:38;4.22;;;1.67;;
44989;SDS011;30723;51.206;3.326;2022-09-01T03:13:25;6.85;;;1.48;;
44989;SDS011;30723;51.206;3.326;2022-09-01T03:15:51;3.97;;;1.45;;
44989;SDS011;30723;51.206;3.326;2022-09-01T03:18:17;2.42;;;1.50;;
44989;SDS011;30723;51.206;3.326;2022-09-01T03:20:44;5.05;;;1.85;;
44989;SDS011;30723;51.206;3.326;2022-09-01T03:23:13;4.03;;;1.70;;
44989;SDS011;30723;51.206;3.326;2022-09-01T03:28:10;8.00;;;1.65;;
44989;SDS011;30723;51.206;3.326;2022-09-01T03:30:38;5.25;;;2.10;;
44989;SDS011;30723;51.206;3.326;2022-09-01T03:33:10;3.08;;;1.77;;
44989;SDS011;30723;51.206;3.326;2022-09-01T03:35:37;7.70;;;1.90;;
44989;SDS011;30723;51.206;3.326;2022-09-01T03:38:03;4.38;;;1.70;;
44989;SDS011;30723;51.206;3.326;2022-09-01T03:40:32;6.53;;;1.90;;
44989;SDS011;30723;51.206;3.326;2022-09-01T03:43:03;3.63;;;1.75;;
44989;SDS011;30723;51.206;3.326;2022-09-01T03:45:37;3.85;;;2.20;;
44989;SDS011;30723;51.206;3.326;2022-09-01T03:48:05;5.55;;;1.88;;
44989;SDS011;30723;51.206;3.326;2022-09-01T03:50:34;3.80;;;1.88;;
44989;SDS011;30723;51.206;3.326;2022-09-01T03:53:11;5.07;;;1.83;;
44989;SDS011;30723;51.206;3.326;2022-09-01T03:55:39;4.03;;;2.00;;
44989;SDS011;30723;51.206;3.326;2022-09-01T03:58:09;4.43;;;1.70;;
44989;SDS011;30723;51.206;3.326;2022-09-01T04:00:39;5.20;;;1.80;;
44989;SDS011;30723;51.206;3.326;2022-09-01T04:03:08;4.97;;;1.85;;
44989;SDS011;30723;51.206;3.326;2022-09-01T04:05:37;4.88;;;2.00;;
44989;SDS011;30723;51.206;3.326;2022-09-01T04:08:07;6.38;;;1.80;;
44989;SDS011;30723;51.206;3.326;2022-09-01T04:10:39;5.05;;;1.88;;
44989;SDS011;30723;51.206;3.326;2022-09-01T04:13:15;2.72;;;2.00;;
44989;SDS011;30723;51.206;3.326;2022-09-01T04:16:16;7.53;;;2.28;;
44989;SDS011;30723;51.206;3.326;2022-09-01T04:19:06;3.38;;;1.90;;
44989;SDS011;30723;51.206;3.326;2022-09-01T04:21:54;5.00;;;1.90;;
44989;SDS011;30723;51.206;3.326;2022-09-01T04:24:27;6.80;;;1.73;;
44989;SDS011;30723;51.206;3.326;2022-09-01T04:26:55;4.38;;;2.05;;
44989;SDS011;30723;51.206;3.326;2022-09-01T04:29:26;5.65;;;2.25;;
44989;SDS011;30723;51.206;3.326;2022-09-01T04:31:54;4.05;;;2.05;;
44989;SDS011;30723;51.206;3.326;2022-09-01T04:34:26;6.35;;;2.63;;
44989;SDS011;30723;51.206;3.326;2022-09-01T04:37:01;4.53;;;2.08;;
44989;SDS011;30723;51.206;3.326;2022-09-01T04:39:37;3.38;;;2.30;;
44989;SDS011;30723;51.206;3.326;2022-09-01T04:42:14;5.82;;;1.98;;
44989;SDS011;30723;51.206;3.326;2022-09-01T04:44:42;7.53;;;2.33;;
44989;SDS011;30723;51.206;3.326;2022-09-01T04:47:11;4.72;;;2.05;;
44989;SDS011;30723;51.206;3.326;2022-09-01T04:49:41;6.82;;;2.50;;
44989;SDS011;30723;51.206;3.326;2022-09-01T04:52:15;5.13;;;2.45;;
44989;SDS011;30723;51.206;3.326;2022-09-01T04:54:42;4.70;;;2.67;;
44989;SDS011;30723;51.206;3.326;2022-09-01T04:57:09;5.50;;;2.10;;
44989;SDS011;30723;51.206;3.326;2022-09-01T04:59:35;7.60;;;2.45;;
44989;SDS011;30723;51.206;3.326;2022-09-01T05:02:02;11.30;;;2.83;;
44989;SDS011;30723;51.206;3.326;2022-09-01T05:04:31;6.07;;;2.50;;
44989;SDS011;30723;51.206;3.326;2022-09-01T05:06:58;5.07;;;2.50;;
44989;SDS011;30723;51.206;3.326;2022-09-01T05:09:27;5.68;;;2.42;;
44989;SDS011;30723;51.206;3.326;2022-09-01T05:11:56;5.93;;;2.45;;
44989;SDS011;30723;51.206;3.326;2022-09-01T05:14:38;10.25;;;2.80;;
44989;SDS011;30723;51.206;3.326;2022-09-01T05:17:20;12.85;;;2.70;;
44989;SDS011;30723;51.206;3.326;2022-09-01T05:19:50;5.38;;;2.58;;
44989;SDS011;30723;51.206;3.326;2022-09-01T05:22:16;7.00;;;2.72;;
44989;SDS011;30723;51.206;3.326;2022-09-01T05:24:46;6.43;;;2.72;;
44989;SDS011;30723;51.206;3.326;2022-09-01T05:27:12;8.13;;;3.10;;
44989;SDS011;30723;51.206;3.326;2022-09-01T05:29:39;9.85;;;2.45;;
44989;SDS011;30723;51.206;3.326;2022-09-01T05:32:05;11.43;;;2.50;;
44989;SDS011;30723;51.206;3.326;2022-09-01T05:34:34;3.85;;;2.40;;
44989;SDS011;30723;51.206;3.326;2022-09-01T05:37:02;7.18;;;2.85;;
44989;SDS011;30723;51.206;3.326;2022-09-01T05:39:32;6.95;;;2.55;;
44989;SDS011;30723;51.206;3.326;2022-09-01T05:42:00;10.02;;;2.88;;
44989;SDS011;30723;51.206;3.326;2022-09-01T05:44:28;12.25;;;3.38;;
44989;SDS011;30723;51.206;3.326;2022-09-01T05:46:57;11.02;;;2.83;;
44989;SDS011;30723;51.206;3.326;2022-09-01T05:49:24;5.60;;;3.00;;
44989;SDS011;30723;51.206;3.326;2022-09-01T05:51:52;12.07;;;2.95;;
44989;SDS011;30723;51.206;3.326;2022-09-01T05:54:24;5.90;;;2.35;;
44989;SDS011;30723;51.206;3.326;2022-09-01T05:56:52;9.32;;;2.75;;
44989;SDS011;30723;51.206;3.326;2022-09-01T05:59:22;10.02;;;2.95;;
44989;SDS011;30723;51.206;3.326;2022-09-01T06:01:50;6.22;;;2.97;;
44989;SDS011;30723;51.206;3.326;2022-09-01T06:04:18;11.77;;;3.00;;
44989;SDS011;30723;51.206;3.326;2022-09-01T06:06:46;6.68;;;3.08;;
44989;SDS011;30723;51.206;3.326;2022-09-01T06:09:13;9.38;;;3.17;;
44989;SDS011;30723;51.206;3.326;2022-09-01T06:11:47;4.85;;;2.97;;
44989;SDS011;30723;51.206;3.326;2022-09-01T06:14:14;3.85;;;2.80;;
44989;SDS011;30723;51.206;3.326;2022-09-01T06:16:42;7.63;;;2.90;;
44989;SDS011;30723;51.206;3.326;2022-09-01T06:19:11;5.70;;;2.80;;
44989;SDS011;30723;51.206;3.326;2022-09-01T06:21:38;7.90;;;2.70;;
44989;SDS011;30723;51.206;3.326;2022-09-01T06:24:05;3.85;;;3.22;;
44989;SDS011;30723;51.206;3.326;2022-09-01T06:26:32;5.05;;;3.22;;
44989;SDS011;30723;51.206;3.326;2022-09-01T06:29:02;10.25;;;3.20;;
44989;SDS011;30723;51.206;3.326;2022-09-01T06:31:34;8.55;;;3.45;;
44989;SDS011;30723;51.206;3.326;2022-09-01T06:34:04;6.72;;;2.95;;
44989;SDS011;30723;51.206;3.326;2022-09-01T06:36:36;4.43;;;3.50;;
44989;SDS011;30723;51.206;3.326;2022-09-01T06:39:18;10.68;;;3.33;;
44989;SDS011;30723;51.206;3.326;2022-09-01T06:41:47;3.70;;;2.92;;
44989;SDS011;30723;51.206;3.326;2022-09-01T06:44:17;3.90;;;3.00;;
44989;SDS011;30723;51.206;3.326;2022-09-01T06:46:47;4.67;;;3.30;;
44989;SDS011;30723;51.206;3.326;2022-09-01T06:49:16;8.70;;;3.50;;
44989;SDS011;30723;51.206;3.326;2022-09-01T06:51:43;6.28;;;3.47;;
44989;SDS011;30723;51.206;3.326;2022-09-01T06:54:13;16.02;;;3.55;;
44989;SDS011;30723;51.206;3.326;2022-09-01T06:56:40;6.65;;;2.92;;
44989;SDS011;30723;51.206;3.326;2022-09-01T06:59:07;10.82;;;3.50;;
44989;SDS011;30723;51.206;3.326;2022-09-01T07:01:34;4.68;;;3.13;;
44989;SDS011;30723;51.206;3.326;2022-09-01T07:04:03;6.22;;;3.80;;
44989;SDS011;30723;51.206;3.326;2022-09-01T07:06:29;11.93;;;3.70;;
44989;SDS011;30723;51.206;3.326;2022-09-01T07:08:57;7.68;;;3.38;;
44989;SDS011;30723;51.206;3.326;2022-09-01T07:11:26;7.22;;;4.18;;
44989;SDS011;30723;51.206;3.326;2022-09-01T07:16:26;10.68;;;3.75;;
44989;SDS011;30723;51.206;3.326;2022-09-01T07:18:56;6.78;;;3.60;;
44989;SDS011;30723;51.206;3.326;2022-09-01T07:21:24;13.18;;;3.95;;
44989;SDS011;30723;51.206;3.326;2022-09-01T07:23:52;7.93;;;3.67;;
44989;SDS011;30723;51.206;3.326;2022-09-01T07:26:19;10.57;;;4.50;;
44989;SDS011;30723;51.206;3.326;2022-09-01T07:28:47;7.68;;;3.92;;
44989;SDS011;30723;51.206;3.326;2022-09-01T07:31:24;10.38;;;3.83;;
44989;SDS011;30723;51.206;3.326;2022-09-01T07:34:08;6.85;;;4.30;;
44989;SDS011;30723;51.206;3.326;2022-09-01T07:39:05;8.10;;;4.13;;
44989;SDS011;30723;51.206;3.326;2022-09-01T07:41:31;13.05;;;4.70;;
44989;SDS011;30723;51.206;3.326;2022-09-01T07:43:59;8.20;;;4.10;;
44989;SDS011;30723;51.206;3.326;2022-09-01T07:46:30;26.67;;;5.03;;
44989;SDS011;30723;51.206;3.326;2022-09-01T07:48:57;9.50;;;4.75;;
44989;SDS011;30723;51.206;3.326;2022-09-01T07:51:25;14.02;;;4.63;;
44989;SDS011;30723;51.206;3.326;2022-09-01T07:53:53;8.20;;;4.55;;
44989;SDS011;30723;51.206;3.326;2022-09-01T07:56:20;9.38;;;4.50;;
44989;SDS011;30723;51.206;3.326;2022-09-01T07:58:48;11.20;;;5.03;;
44989;SDS011;30723;51.206;3.326;2022-09-01T08:01:16;15.10;;;4.90;;
44989;SDS011;30723;51.206;3.326;2022-09-01T08:03:47;11.05;;;4.53;;
44989;SDS011;30723;51.206;3.326;2022-09-01T08:06:17;9.77;;;5.10;;
44989;SDS011;30723;51.206;3.326;2022-09-01T08:08:45;12.70;;;5.25;;
44989;SDS011;30723;51.206;3.326;2022-09-01T08:11:16;9.98;;;4.45;;
44989;SDS011;30723;51.206;3.326;2022-09-01T08:13:50;17.95;;;5.10;;
44989;SDS011;30723;51.206;3.326;2022-09-01T08:16:18;11.57;;;5.05;;
44989;SDS011;30723;51.206;3.326;2022-09-01T08:18:46;5.97;;;4.25;;
44989;SDS011;30723;51.206;3.326;2022-09-01T08:21:12;7.65;;;5.15;;
44989;SDS011;30723;51.206;3.326;2022-09-01T08:23:39;10.02;;;4.68;;
44989;SDS011;30723;51.206;3.326;2022-09-01T08:26:06;8.60;;;5.00;;
44989;SDS011;30723;51.206;3.326;2022-09-01T08:28:37;8.85;;;5.18;;
44989;SDS011;30723;51.206;3.326;2022-09-01T08:31:07;8.55;;;5.22;;
44989;SDS011;30723;51.206;3.326;2022-09-01T08:33:35;12.23;;;5.00;;
44989;SDS011;30723;51.206;3.326;2022-09-01T08:36:06;8.88;;;4.82;;
44989;SDS011;30723;51.206;3.326;2022-09-01T08:38:34;9.52;;;4.75;;
44989;SDS011;30723;51.206;3.326;2022-09-01T08:41:01;19.75;;;5.45;;
44989;SDS011;30723;51.206;3.326;2022-09-01T08:49:03;9.52;;;5.90;;
44989;SDS011;30723;51.206;3.326;2022-09-01T08:54:57;11.98;;;5.35;;
44989;SDS011;30723;51.206;3.326;2022-09-01T08:57:13;13.55;;;5.20;;
44989;SDS011;30723;51.206;3.326;2022-09-01T08:59:44;7.60;;;5.00;;
44989;SDS011;30723;51.206;3.326;2022-09-01T09:04:43;10.37;;;5.17;;
44989;SDS011;30723;51.206;3.326;2022-09-01T09:07:23;11.55;;;5.40;;
44989;SDS011;30723;51.206;3.326;2022-09-01T09:18:32;14.15;;;5.57;;
44989;SDS011;30723;51.206;3.326;2022-09-01T09:21:54;6.57;;;5.25;;
44989;SDS011;30723;51.206;3.326;2022-09-01T09:26:54;8.20;;;5.57;;
44989;SDS011;30723;51.206;3.326;2022-09-01T09:29:40;6.88;;;4.85;;
44989;SDS011;30723;51.206;3.326;2022-09-01T09:32:07;18.88;;;5.40;;
44989;SDS011;30723;51.206;3.326;2022-09-01T09:40:01;17.63;;;5.20;;
44989;SDS011;30723;51.206;3.326;2022-09-01T09:42:39;8.73;;;4.70;;
44989;SDS011;30723;51.206;3.326;2022-09-01T09:47:49;8.55;;;4.55;;
44989;SDS011;30723;51.206;3.326;2022-09-01T09:50:17;8.75;;;3.85;;
44989;SDS011;30723;51.206;3.326;2022-09-01T09:52:47;9.45;;;3.75;;
44989;SDS011;30723;51.206;3.326;2022-09-01T09:55:18;13.30;;;4.00;;
44989;SDS011;30723;51.206;3.326;2022-09-01T09:58:09;11.07;;;3.92;;
44989;SDS011;30723;51.206;3.326;2022-09-01T10:00:36;16.13;;;4.47;;
44989;SDS011;30723;51.206;3.326;2022-09-01T10:03:08;8.45;;;3.60;;
44989;SDS011;30723;51.206;3.326;2022-09-01T10:05:41;6.68;;;4.25;;
44989;SDS011;30723;51.206;3.326;2022-09-01T10:10:58;10.13;;;3.72;;
44989;SDS011;30723;51.206;3.326;2022-09-01T10:13:25;13.13;;;3.80;;
44989;SDS011;30723;51.206;3.326;2022-09-01T10:15:54;5.47;;;3.33;;
44989;SDS011;30723;51.206;3.326;2022-09-01T10:18:25;7.40;;;3.55;;
44989;SDS011;30723;51.206;3.326;2022-09-01T10:21:03;9.55;;;3.38;;
44989;SDS011;30723;51.206;3.326;2022-09-01T10:23:40;8.30;;;3.65;;
44989;SDS011;30723;51.206;3.326;2022-09-01T10:26:09;8.10;;;4.05;;
44989;SDS011;30723;51.206;3.326;2022-09-01T10:32:17;9.95;;;4.07;;
44989;SDS011;30723;51.206;3.326;2022-09-01T10:34:48;6.82;;;3.55;;
44989;SDS011;30723;51.206;3.326;2022-09-01T10:37:38;9.30;;;3.92;;
44989;SDS011;30723;51.206;3.326;2022-09-01T10:42:56;7.75;;;3.38;;
44989;SDS011;30723;51.206;3.326;2022-09-01T10:48:46;9.80;;;3.10;;
44989;SDS011;30723;51.206;3.326;2022-09-01T10:51:57;9.27;;;2.80;;
44989;SDS011;30723;51.206;3.326;2022-09-01T10:55:02;4.38;;;2.63;;
44989;SDS011;30723;51.206;3.326;2022-09-01T10:57:35;3.95;;;2.50;;
44989;SDS011;30723;51.206;3.326;2022-09-01T11:13:41;4.00;;;2.92;;
44989;SDS011;30723;51.206;3.326;2022-09-01T11:19:35;7.03;;;2.85;;
44989;SDS011;30723;51.206;3.326;2022-09-01T11:22:36;4.72;;;2.78;;
44989;SDS011;30723;51.206;3.326;2022-09-01T11:25:33;4.78;;;2.70;;
44989;SDS011;30723;51.206;3.326;2022-09-01T11:30:56;3.10;;;2.50;;
44989;SDS011;30723;51.206;3.326;2022-09-01T11:42:05;13.38;;;2.78;;
44989;SDS011;30723;51.206;3.326;2022-09-01T11:47:59;7.25;;;2.90;;
44989;SDS011;30723;51.206;3.326;2022-09-01T11:50:34;9.35;;;3.22;;
44989;SDS011;30723;51.206;3.326;2022-09-01T11:53:19;6.40;;;3.30;;
44989;SDS011;30723;51.206;3.326;2022-09-01T11:55:48;10.90;;;3.15;;
44989;SDS011;30723;51.206;3.326;2022-09-01T12:00:56;4.72;;;2.72;;
44989;SDS011;30723;51.206;3.326;2022-09-01T12:03:42;5.80;;;2.70;;
44989;SDS011;30723;51.206;3.326;2022-09-01T12:06:12;5.72;;;2.78;;
44989;SDS011;30723;51.206;3.326;2022-09-01T12:08:51;4.93;;;2.90;;
44989;SDS011;30723;51.206;3.326;2022-09-01T12:14:07;6.35;;;2.95;;
44989;SDS011;30723;51.206;3.326;2022-09-01T12:16:35;7.32;;;2.22;;
44989;SDS011;30723;51.206;3.326;2022-09-01T12:19:04;6.57;;;2.97;;
44989;SDS011;30723;51.206;3.326;2022-09-01T12:21:32;8.63;;;3.17;;
44989;SDS011;30723;51.206;3.326;2022-09-01T12:24:14;4.18;;;3.10;;
44989;SDS011;30723;51.206;3.326;2022-09-01T12:26:41;4.30;;;2.85;;
44989;SDS011;30723;51.206;3.326;2022-09-01T12:29:08;3.28;;;2.55;;
44989;SDS011;30723;51.206;3.326;2022-09-01T12:31:35;8.55;;;2.85;;
44989;SDS011;30723;51.206;3.326;2022-09-01T12:34:04;7.07;;;3.22;;
44989;SDS011;30723;51.206;3.326;2022-09-01T12:42:11;6.88;;;2.67;;
44989;SDS011;30723;51.206;3.326;2022-09-01T12:45:01;4.82;;;2.33;;
44989;SDS011;30723;51.206;3.326;2022-09-01T12:50:30;8.77;;;2.42;;
44989;SDS011;30723;51.206;3.326;2022-09-01T12:52:47;10.45;;;3.33;;
44989;SDS011;30723;51.206;3.326;2022-09-01T12:55:22;3.35;;;2.47;;
44989;SDS011;30723;51.206;3.326;2022-09-01T12:57:54;5.35;;;2.42;;
44989;SDS011;30723;51.206;3.326;2022-09-01T13:00:31;5.80;;;2.13;;
44989;SDS011;30723;51.206;3.326;2022-09-01T13:03:17;3.83;;;2.35;;
44989;SDS011;30723;51.206;3.326;2022-09-01T13:05:52;5.53;;;2.38;;
44989;SDS011;30723;51.206;3.326;2022-09-01T13:08:24;3.28;;;2.58;;
44989;SDS011;30723;51.206;3.326;2022-09-01T13:10:56;5.78;;;2.80;;
44989;SDS011;30723;51.206;3.326;2022-09-01T13:16:07;3.70;;;2.40;;
44989;SDS011;30723;51.206;3.326;2022-09-01T13:21:05;6.60;;;2.78;;
44989;SDS011;30723;51.206;3.326;2022-09-01T13:23:32;6.35;;;2.60;;
44989;SDS011;30723;51.206;3.326;2022-09-01T13:25:58;4.45;;;2.60;;
44989;SDS011;30723;51.206;3.326;2022-09-01T13:28:24;4.20;;;2.50;;
44989;SDS011;30723;51.206;3.326;2022-09-01T13:30:55;10.35;;;3.00;;
44989;SDS011;30723;51.206;3.326;2022-09-01T13:33:26;7.07;;;2.67;;
44989;SDS011;30723;51.206;3.326;2022-09-01T13:35:53;3.75;;;2.58;;
44989;SDS011;30723;51.206;3.326;2022-09-01T13:38:20;5.68;;;2.70;;
44989;SDS011;30723;51.206;3.326;2022-09-01T13:40:48;4.30;;;2.60;;
44989;SDS011;30723;51.206;3.326;2022-09-01T13:43:16;7.75;;;2.78;;
44989;SDS011;30723;51.206;3.326;2022-09-01T13:45:47;5.78;;;2.80;;
44989;SDS011;30723;51.206;3.326;2022-09-01T13:48:14;8.20;;;2.95;;
44989;SDS011;30723;51.206;3.326;2022-09-01T13:50:41;7.97;;;2.83;;
44989;SDS011;30723;51.206;3.326;2022-09-01T13:53:09;6.07;;;2.75;;
44989;SDS011;30723;51.206;3.326;2022-09-01T13:55:37;6.57;;;2.50;;
44989;SDS011;30723;51.206;3.326;2022-09-01T13:58:05;4.00;;;2.88;;
44989;SDS011;30723;51.206;3.326;2022-09-01T14:00:33;6.50;;;2.10;;
44989;SDS011;30723;51.206;3.326;2022-09-01T14:03:06;5.70;;;2.40;;
44989;SDS011;30723;51.206;3.326;2022-09-01T14:05:48;6.13;;;2.50;;
44989;SDS011;30723;51.206;3.326;2022-09-01T14:08:16;11.07;;;2.78;;
44989;SDS011;30723;51.206;3.326;2022-09-01T14:13:15;5.97;;;2.72;;
44989;SDS011;30723;51.206;3.326;2022-09-01T14:15:43;12.77;;;2.50;;
44989;SDS011;30723;51.206;3.326;2022-09-01T14:18:10;3.00;;;2.10;;
44989;SDS011;30723;51.206;3.326;2022-09-01T14:20:39;3.42;;;1.95;;
44989;SDS011;30723;51.206;3.326;2022-09-01T14:23:10;5.63;;;2.53;;
44989;SDS011;30723;51.206;3.326;2022-09-01T14:25:45;10.10;;;2.67;;
44989;SDS011;30723;51.206;3.326;2022-09-01T14:28:27;6.95;;;2.25;;
44989;SDS011;30723;51.206;3.326;2022-09-01T14:30:53;4.03;;;2.22;;
44989;SDS011;30723;51.206;3.326;2022-09-01T14:33:21;2.53;;;1.92;;
44989;SDS011;30723;51.206;3.326;2022-09-01T14:35:48;2.10;;;1.95;;
44989;SDS011;30723;51.206;3.326;2022-09-01T14:38:14;4.10;;;2.20;;
44989;SDS011;30723;51.206;3.326;2022-09-01T14:40:41;4.90;;;2.17;;
44989;SDS011;30723;51.206;3.326;2022-09-01T14:43:11;6.03;;;1.98;;
44989;SDS011;30723;51.206;3.326;2022-09-01T14:45:38;9.07;;;2.05;;
44989;SDS011;30723;51.206;3.326;2022-09-01T14:48:05;4.53;;;2.28;;
44989;SDS011;30723;51.206;3.326;2022-09-01T14:50:33;8.40;;;2.03;;
44989;SDS011;30723;51.206;3.326;2022-09-01T14:53:04;5.78;;;2.00;;
44989;SDS011;30723;51.206;3.326;2022-09-01T14:55:30;8.50;;;2.10;;
44989;SDS011;30723;51.206;3.326;2022-09-01T14:57:58;7.22;;;2.15;;
44989;SDS011;30723;51.206;3.326;2022-09-01T15:00:28;3.83;;;2.30;;
44989;SDS011;30723;51.206;3.326;2022-09-01T15:02:56;5.80;;;2.47;;
44989;SDS011;30723;51.206;3.326;2022-09-01T15:05:23;16.63;;;3.50;;
44989;SDS011;30723;51.206;3.326;2022-09-01T15:07:49;13.68;;;2.92;;
44989;SDS011;30723;51.206;3.326;2022-09-01T15:10:17;11.18;;;2.28;;
44989;SDS011;30723;51.206;3.326;2022-09-01T15:12:47;4.38;;;2.45;;
44989;SDS011;30723;51.206;3.326;2022-09-01T15:15:14;4.85;;;2.38;;
44989;SDS011;30723;51.206;3.326;2022-09-01T15:17:41;5.05;;;2.47;;
44989;SDS011;30723;51.206;3.326;2022-09-01T15:20:08;8.27;;;3.20;;
44989;SDS011;30723;51.206;3.326;2022-09-01T15:22:53;11.45;;;3.10;;
44989;SDS011;30723;51.206;3.326;2022-09-01T15:25:20;8.40;;;3.60;;
44989;SDS011;30723;51.206;3.326;2022-09-01T15:27:48;9.93;;;3.50;;
44989;SDS011;30723;51.206;3.326;2022-09-01T15:30:15;9.75;;;3.13;;
44989;SDS011;30723;51.206;3.326;2022-09-01T15:32:45;9.60;;;4.13;;
44989;SDS011;30723;51.206;3.326;2022-09-01T15:35:13;9.88;;;3.53;;
44989;SDS011;30723;51.206;3.326;2022-09-01T15:37:40;9.30;;;4.07;;
44989;SDS011;30723;51.206;3.326;2022-09-01T15:40:06;6.88;;;4.13;;
44989;SDS011;30723;51.206;3.326;2022-09-01T15:42:35;8.45;;;4.00;;
44989;SDS011;30723;51.206;3.326;2022-09-01T15:45:03;15.35;;;4.50;;
44989;SDS011;30723;51.206;3.326;2022-09-01T15:47:39;11.15;;;4.60;;
44989;SDS011;30723;51.206;3.326;2022-09-01T15:50:08;11.27;;;4.47;;
44989;SDS011;30723;51.206;3.326;2022-09-01T15:52:47;9.85;;;4.85;;
44989;SDS011;30723;51.206;3.326;2022-09-01T15:55:41;12.70;;;4.10;;
44989;SDS011;30723;51.206;3.326;2022-09-01T15:58:12;9.57;;;3.65;;
44989;SDS011;30723;51.206;3.326;2022-09-01T16:00:39;8.40;;;4.10;;
44989;SDS011;30723;51.206;3.326;2022-09-01T16:03:07;10.07;;;4.60;;
44989;SDS011;30723;51.206;3.326;2022-09-01T16:05:35;11.48;;;4.10;;
44989;SDS011;30723;51.206;3.326;2022-09-01T16:08:04;13.05;;;3.80;;
44989;SDS011;30723;51.206;3.326;2022-09-01T16:10:35;11.68;;;4.10;;
44989;SDS011;30723;51.206;3.326;2022-09-01T16:13:04;19.67;;;4.43;;
44989;SDS011;30723;51.206;3.326;2022-09-01T16:15:31;13.05;;;4.15;;
44989;SDS011;30723;51.206;3.326;2022-09-01T16:18:12;8.00;;;3.70;;
44989;SDS011;30723;51.206;3.326;2022-09-01T16:23:43;9.85;;;4.00;;
44989;SDS011;30723;51.206;3.326;2022-09-01T16:26:28;7.65;;;3.67;;
44989;SDS011;30723;51.206;3.326;2022-09-01T16:28:57;7.82;;;4.07;;
44989;SDS011;30723;51.206;3.326;2022-09-01T16:31:29;7.32;;;3.60;;
44989;SDS011;30723;51.206;3.326;2022-09-01T16:33:57;11.05;;;3.55;;
44989;SDS011;30723;51.206;3.326;2022-09-01T16:36:31;7.63;;;3.22;;
44989;SDS011;30723;51.206;3.326;2022-09-01T16:39:16;7.45;;;3.28;;
44989;SDS011;30723;51.206;3.326;2022-09-01T16:47:19;6.25;;;2.92;;
44989;SDS011;30723;51.206;3.326;2022-09-01T16:53:21;10.38;;;2.88;;
44989;SDS011;30723;51.206;3.326;2022-09-01T16:55:53;5.82;;;2.60;;
44989;SDS011;30723;51.206;3.326;2022-09-01T17:01:43;3.47;;;2.55;;
44989;SDS011;30723;51.206;3.326;2022-09-01T17:07:27;5.60;;;2.45;;
44989;SDS011;30723;51.206;3.326;2022-09-01T17:15:08;9.95;;;2.17;;
44989;SDS011;30723;51.206;3.326;2022-09-01T17:17:47;8.88;;;2.20;;
44989;SDS011;30723;51.206;3.326;2022-09-01T17:20:28;15.30;;;2.27;;
44989;SDS011;30723;51.206;3.326;2022-09-01T17:23:07;5.38;;;2.50;;
44989;SDS011;30723;51.206;3.326;2022-09-01T17:25:50;5.03;;;2.30;;
44989;SDS011;30723;51.206;3.326;2022-09-01T17:30:52;7.97;;;2.20;;
44989;SDS011;30723;51.206;3.326;2022-09-01T17:44:40;2.40;;;1.60;;